sensor_id;sensor_type;location;lat;lon;timestamp;P1;durP1;ratioP1;P2;durP2;ratioP2
20232;SDS011;37438;55.674;13.074;2024-01-15T00:01:24;14.93;;;2.25;;
20232;SDS011;37438;55.674;13.074;2024-01-15T00:04:29;14.38;;;2.33;;
20232;SDS011;37438;55.674;13.074;2024-01-15T00:07:35;6.28;;;1.73;;
20232;SDS011;37438;55.674;13.074;2024-01-15T00:10:39;7.68;;;1.92;;
20232;SDS011;37438;55.674;13.074;2024-01-15T00:16:49;11.98;;;2.03;;
20232;SDS011;37438;55.674;13.074;2024-01-15T00:19:55;7.93;;;1.42;;
20232;SDS011;37438;55.674;13.074;2024-01-15T00:23:00;19.83;;;2.78;;
20232;SDS011;37438;55.674;13.074;2024-01-15T00:26:05;12.57;;;1.55;;
20232;SDS011;37438;55.674;13.074;2024-01-15T00:29:13;4.45;;;1.08;;
20232;SDS011;37438;55.674;13.074;2024-01-15T00:32:18;10.13;;;1.02;;
20232;SDS011;37438;55.674;13.074;2024-01-15T00:35:24;7.80;;;1.52;;
20232;SDS011;37438;55.674;13.074;2024-01-15T00:38:29;16.60;;;1.33;;
20232;SDS011;37438;55.674;13.074;2024-01-15T00:41:33;17.98;;;1.98;;
20232;SDS011;37438;55.674;13.074;2024-01-15T00:47:44;11.63;;;1.45;;
20232;SDS011;37438;55.674;13.074;2024-01-15T00:50:48;22.00;;;2.83;;
20232;SDS011;37438;55.674;13.074;2024-01-15T00:53:53;11.45;;;2.28;;
20232;SDS011;37438;55.674;13.074;2024-01-15T00:56:58;21.45;;;1.85;;
20232;SDS011;37438;55.674;13.074;2024-01-15T01:00:03;17.40;;;2.38;;
20232;SDS011;37438;55.674;13.074;2024-01-15T01:03:10;26.33;;;2.90;;
20232;SDS011;37438;55.674;13.074;2024-01-15T01:06:15;16.73;;;2.20;;
20232;SDS011;37438;55.674;13.074;2024-01-15T01:09:20;9.27;;;1.70;;
20232;SDS011;37438;55.674;13.074;2024-01-15T01:15:30;13.48;;;1.52;;
20232;SDS011;37438;55.674;13.074;2024-01-15T01:18:35;22.73;;;2.22;;
20232;SDS011;37438;55.674;13.074;2024-01-15T01:21:40;11.35;;;1.70;;
20232;SDS011;37438;55.674;13.074;2024-01-15T01:24:45;13.80;;;1.92;;
20232;SDS011;37438;55.674;13.074;2024-01-15T01:27:50;33.80;;;3.17;;
20232;SDS011;37438;55.674;13.074;2024-01-15T01:30:55;14.07;;;2.22;;
20232;SDS011;37438;55.674;13.074;2024-01-15T01:34:00;10.85;;;2.08;;
20232;SDS011;37438;55.674;13.074;2024-01-15T01:37:05;10.10;;;1.10;;
20232;SDS011;37438;55.674;13.074;2024-01-15T01:40:10;14.13;;;2.47;;
20232;SDS011;37438;55.674;13.074;2024-01-15T01:43:15;17.48;;;2.58;;
20232;SDS011;37438;55.674;13.074;2024-01-15T01:46:20;17.30;;;3.00;;
20232;SDS011;37438;55.674;13.074;2024-01-15T01:49:25;17.45;;;2.25;;
20232;SDS011;37438;55.674;13.074;2024-01-15T01:52:31;17.70;;;1.80;;
20232;SDS011;37438;55.674;13.074;2024-01-15T01:55:36;8.23;;;1.48;;
20232;SDS011;37438;55.674;13.074;2024-01-15T01:58:40;8.93;;;1.60;;
20232;SDS011;37438;55.674;13.074;2024-01-15T02:04:50;11.68;;;2.10;;
20232;SDS011;37438;55.674;13.074;2024-01-15T02:07:55;13.77;;;2.60;;
20232;SDS011;37438;55.674;13.074;2024-01-15T02:14:05;10.38;;;1.80;;
20232;SDS011;37438;55.674;13.074;2024-01-15T02:17:10;5.18;;;1.23;;
20232;SDS011;37438;55.674;13.074;2024-01-15T02:20:15;8.10;;;1.40;;
20232;SDS011;37438;55.674;13.074;2024-01-15T02:23:20;9.20;;;1.58;;
20232;SDS011;37438;55.674;13.074;2024-01-15T02:26:25;8.85;;;1.55;;
20232;SDS011;37438;55.674;13.074;2024-01-15T02:29:31;10.30;;;1.52;;
20232;SDS011;37438;55.674;13.074;2024-01-15T02:32:35;12.68;;;1.30;;
20232;SDS011;37438;55.674;13.074;2024-01-15T02:35:40;10.55;;;1.10;;
20232;SDS011;37438;55.674;13.074;2024-01-15T02:38:46;11.98;;;1.50;;
20232;SDS011;37438;55.674;13.074;2024-01-15T02:41:51;10.73;;;1.75;;
20232;SDS011;37438;55.674;13.074;2024-01-15T02:44:56;10.93;;;2.08;;
20232;SDS011;37438;55.674;13.074;2024-01-15T02:48:01;9.35;;;1.80;;
20232;SDS011;37438;55.674;13.074;2024-01-15T02:51:06;10.80;;;2.22;;
20232;SDS011;37438;55.674;13.074;2024-01-15T02:54:11;13.98;;;1.85;;
20232;SDS011;37438;55.674;13.074;2024-01-15T02:57:15;10.75;;;1.48;;
20232;SDS011;37438;55.674;13.074;2024-01-15T03:00:20;11.68;;;1.55;;
20232;SDS011;37438;55.674;13.074;2024-01-15T03:03:25;12.15;;;1.10;;
20232;SDS011;37438;55.674;13.074;2024-01-15T03:06:30;9.63;;;0.93;;
20232;SDS011;37438;55.674;13.074;2024-01-15T03:09:35;8.70;;;1.27;;
20232;SDS011;37438;55.674;13.074;2024-01-15T03:12:40;11.82;;;1.30;;
20232;SDS011;37438;55.674;13.074;2024-01-15T03:15:45;5.38;;;1.50;;
20232;SDS011;37438;55.674;13.074;2024-01-15T03:18:50;15.23;;;2.05;;
20232;SDS011;37438;55.674;13.074;2024-01-15T03:21:55;2.92;;;0.85;;
20232;SDS011;37438;55.674;13.074;2024-01-15T03:25:00;20.55;;;2.33;;
20232;SDS011;37438;55.674;13.074;2024-01-15T03:28:05;6.25;;;0.98;;
20232;SDS011;37438;55.674;13.074;2024-01-15T03:31:10;9.52;;;1.58;;
20232;SDS011;37438;55.674;13.074;2024-01-15T03:34:15;1.05;;;0.63;;
20232;SDS011;37438;55.674;13.074;2024-01-15T03:37:20;7.10;;;1.15;;
20232;SDS011;37438;55.674;13.074;2024-01-15T03:40:25;4.90;;;0.52;;
20232;SDS011;37438;55.674;13.074;2024-01-15T03:43:30;7.85;;;0.80;;
20232;SDS011;37438;55.674;13.074;2024-01-15T03:46:35;3.25;;;1.83;;
20232;SDS011;37438;55.674;13.074;2024-01-15T03:49:40;6.03;;;1.13;;
20232;SDS011;37438;55.674;13.074;2024-01-15T03:52:45;4.35;;;0.47;;
20232;SDS011;37438;55.674;13.074;2024-01-15T03:55:50;6.82;;;0.90;;
20232;SDS011;37438;55.674;13.074;2024-01-15T03:58:55;5.60;;;0.73;;
20232;SDS011;37438;55.674;13.074;2024-01-15T04:02:00;4.50;;;0.50;;
20232;SDS011;37438;55.674;13.074;2024-01-15T04:05:04;9.93;;;1.08;;
20232;SDS011;37438;55.674;13.074;2024-01-15T04:08:09;5.38;;;0.20;;
20232;SDS011;37438;55.674;13.074;2024-01-15T04:11:14;4.18;;;0.20;;
20232;SDS011;37438;55.674;13.074;2024-01-15T04:14:19;3.40;;;0.43;;
20232;SDS011;37438;55.674;13.074;2024-01-15T04:17:24;4.03;;;0.32;;
20232;SDS011;37438;55.674;13.074;2024-01-15T04:20:29;1.67;;;0.28;;
20232;SDS011;37438;55.674;13.074;2024-01-15T04:23:34;4.80;;;0.40;;
20232;SDS011;37438;55.674;13.074;2024-01-15T04:26:39;6.47;;;0.70;;
20232;SDS011;37438;55.674;13.074;2024-01-15T04:29:44;6.63;;;1.27;;
20232;SDS011;37438;55.674;13.074;2024-01-15T04:32:49;9.55;;;0.38;;
20232;SDS011;37438;55.674;13.074;2024-01-15T04:35:54;3.60;;;0.77;;
20232;SDS011;37438;55.674;13.074;2024-01-15T04:38:59;5.82;;;0.65;;
20232;SDS011;37438;55.674;13.074;2024-01-15T04:42:04;8.18;;;0.82;;
20232;SDS011;37438;55.674;13.074;2024-01-15T04:45:09;3.65;;;0.70;;
20232;SDS011;37438;55.674;13.074;2024-01-15T04:48:14;6.13;;;1.27;;
20232;SDS011;37438;55.674;13.074;2024-01-15T04:51:19;8.70;;;0.77;;
20232;SDS011;37438;55.674;13.074;2024-01-15T04:54:24;7.10;;;0.70;;
20232;SDS011;37438;55.674;13.074;2024-01-15T05:00:33;3.17;;;0.47;;
20232;SDS011;37438;55.674;13.074;2024-01-15T05:03:38;7.22;;;0.70;;
20232;SDS011;37438;55.674;13.074;2024-01-15T05:06:43;5.05;;;0.80;;
20232;SDS011;37438;55.674;13.074;2024-01-15T05:09:48;15.45;;;0.77;;
20232;SDS011;37438;55.674;13.074;2024-01-15T05:12:53;5.30;;;0.70;;
20232;SDS011;37438;55.674;13.074;2024-01-15T05:15:58;11.23;;;1.00;;
20232;SDS011;37438;55.674;13.074;2024-01-15T05:19:03;6.32;;;0.68;;
20232;SDS011;37438;55.674;13.074;2024-01-15T05:22:08;6.03;;;0.73;;
20232;SDS011;37438;55.674;13.074;2024-01-15T05:25:13;10.15;;;0.90;;
20232;SDS011;37438;55.674;13.074;2024-01-15T05:28:18;8.38;;;1.10;;
20232;SDS011;37438;55.674;13.074;2024-01-15T05:31:23;7.25;;;1.15;;
20232;SDS011;37438;55.674;13.074;2024-01-15T05:34:28;3.17;;;0.90;;
20232;SDS011;37438;55.674;13.074;2024-01-15T05:37:34;4.38;;;1.08;;
20232;SDS011;37438;55.674;13.074;2024-01-15T05:40:38;4.15;;;1.05;;
20232;SDS011;37438;55.674;13.074;2024-01-15T05:43:43;7.85;;;0.90;;
20232;SDS011;37438;55.674;13.074;2024-01-15T05:46:48;9.23;;;0.80;;
20232;SDS011;37438;55.674;13.074;2024-01-15T05:49:54;7.95;;;0.60;;
20232;SDS011;37438;55.674;13.074;2024-01-15T05:52:58;4.82;;;1.10;;
20232;SDS011;37438;55.674;13.074;2024-01-15T05:56:04;10.98;;;0.93;;
20232;SDS011;37438;55.674;13.074;2024-01-15T06:02:17;7.25;;;1.05;;
20232;SDS011;37438;55.674;13.074;2024-01-15T06:05:22;11.65;;;1.48;;
20232;SDS011;37438;55.674;13.074;2024-01-15T06:08:26;6.18;;;0.98;;
20232;SDS011;37438;55.674;13.074;2024-01-15T06:11:31;7.60;;;2.05;;
20232;SDS011;37438;55.674;13.074;2024-01-15T06:14:37;14.07;;;1.85;;
20232;SDS011;37438;55.674;13.074;2024-01-15T06:17:42;9.45;;;1.27;;
20232;SDS011;37438;55.674;13.074;2024-01-15T06:20:47;4.88;;;1.50;;
20232;SDS011;37438;55.674;13.074;2024-01-15T06:23:52;10.88;;;2.25;;
20232;SDS011;37438;55.674;13.074;2024-01-15T06:26:57;7.47;;;1.65;;
20232;SDS011;37438;55.674;13.074;2024-01-15T06:30:01;6.10;;;1.40;;
20232;SDS011;37438;55.674;13.074;2024-01-15T06:33:07;7.18;;;0.73;;
20232;SDS011;37438;55.674;13.074;2024-01-15T06:36:12;9.25;;;1.38;;
20232;SDS011;37438;55.674;13.074;2024-01-15T06:39:17;4.88;;;0.75;;
20232;SDS011;37438;55.674;13.074;2024-01-15T06:42:22;10.65;;;1.05;;
20232;SDS011;37438;55.674;13.074;2024-01-15T06:45:27;6.88;;;1.30;;
20232;SDS011;37438;55.674;13.074;2024-01-15T06:48:32;8.35;;;1.08;;
20232;SDS011;37438;55.674;13.074;2024-01-15T06:51:37;4.95;;;1.45;;
20232;SDS011;37438;55.674;13.074;2024-01-15T06:54:42;6.03;;;2.20;;
20232;SDS011;37438;55.674;13.074;2024-01-15T06:57:47;5.55;;;1.10;;
20232;SDS011;37438;55.674;13.074;2024-01-15T07:00:52;5.82;;;0.70;;
20232;SDS011;37438;55.674;13.074;2024-01-15T07:03:57;5.07;;;0.88;;
20232;SDS011;37438;55.674;13.074;2024-01-15T07:07:02;9.80;;;1.08;;
20232;SDS011;37438;55.674;13.074;2024-01-15T07:10:07;10.65;;;1.58;;
20232;SDS011;37438;55.674;13.074;2024-01-15T07:13:12;6.22;;;1.20;;
20232;SDS011;37438;55.674;13.074;2024-01-15T07:16:17;8.23;;;1.45;;
20232;SDS011;37438;55.674;13.074;2024-01-15T07:19:40;4.95;;;0.52;;
20232;SDS011;37438;55.674;13.074;2024-01-15T07:22:45;12.75;;;1.42;;
20232;SDS011;37438;55.674;13.074;2024-01-15T07:25:50;12.27;;;1.38;;
20232;SDS011;37438;55.674;13.074;2024-01-15T07:28:55;1.52;;;0.38;;
20232;SDS011;37438;55.674;13.074;2024-01-15T07:31:59;1.45;;;0.35;;
20232;SDS011;37438;55.674;13.074;2024-01-15T07:35:04;6.50;;;0.80;;
20232;SDS011;37438;55.674;13.074;2024-01-15T07:38:10;10.88;;;0.90;;
20232;SDS011;37438;55.674;13.074;2024-01-15T07:41:16;2.47;;;0.50;;
20232;SDS011;37438;55.674;13.074;2024-01-15T07:44:22;4.28;;;0.38;;
20232;SDS011;37438;55.674;13.074;2024-01-15T07:47:28;3.80;;;0.52;;
20232;SDS011;37438;55.674;13.074;2024-01-15T07:50:32;2.40;;;0.30;;
20232;SDS011;37438;55.674;13.074;2024-01-15T07:53:37;5.13;;;1.00;;
20232;SDS011;37438;55.674;13.074;2024-01-15T07:56:58;3.60;;;0.30;;
20232;SDS011;37438;55.674;13.074;2024-01-15T08:00:03;6.28;;;0.98;;
20232;SDS011;37438;55.674;13.074;2024-01-15T08:03:13;11.20;;;0.93;;
20232;SDS011;37438;55.674;13.074;2024-01-15T08:06:19;2.85;;;0.47;;
20232;SDS011;37438;55.674;13.074;2024-01-15T08:09:25;2.95;;;0.52;;
20232;SDS011;37438;55.674;13.074;2024-01-15T08:12:30;2.95;;;0.70;;
20232;SDS011;37438;55.674;13.074;2024-01-15T08:15:35;7.68;;;1.27;;
20232;SDS011;37438;55.674;13.074;2024-01-15T08:18:41;5.88;;;0.75;;
20232;SDS011;37438;55.674;13.074;2024-01-15T08:21:48;11.60;;;0.60;;
20232;SDS011;37438;55.674;13.074;2024-01-15T08:24:53;9.45;;;0.50;;
20232;SDS011;37438;55.674;13.074;2024-01-15T08:28:00;12.35;;;1.30;;
20232;SDS011;37438;55.674;13.074;2024-01-15T08:31:05;6.53;;;0.82;;
20232;SDS011;37438;55.674;13.074;2024-01-15T08:34:10;10.98;;;0.60;;
20232;SDS011;37438;55.674;13.074;2024-01-15T08:37:15;4.63;;;0.63;;
20232;SDS011;37438;55.674;13.074;2024-01-15T08:40:20;10.98;;;0.52;;
20232;SDS011;37438;55.674;13.074;2024-01-15T08:43:25;3.60;;;1.00;;
20232;SDS011;37438;55.674;13.074;2024-01-15T08:46:30;11.00;;;1.85;;
20232;SDS011;37438;55.674;13.074;2024-01-15T08:49:35;8.75;;;1.05;;
20232;SDS011;37438;55.674;13.074;2024-01-15T08:52:41;16.25;;;1.20;;
20232;SDS011;37438;55.674;13.074;2024-01-15T08:55:46;6.38;;;0.70;;
20232;SDS011;37438;55.674;13.074;2024-01-15T08:58:51;0.80;;;0.43;;
20232;SDS011;37438;55.674;13.074;2024-01-15T09:01:56;8.45;;;1.20;;
20232;SDS011;37438;55.674;13.074;2024-01-15T09:05:01;3.72;;;0.57;;
20232;SDS011;37438;55.674;13.074;2024-01-15T09:08:09;6.82;;;1.35;;
20232;SDS011;37438;55.674;13.074;2024-01-15T09:11:14;11.35;;;1.35;;
20232;SDS011;37438;55.674;13.074;2024-01-15T09:14:19;7.35;;;0.82;;
20232;SDS011;37438;55.674;13.074;2024-01-15T09:17:39;1.83;;;0.50;;
20232;SDS011;37438;55.674;13.074;2024-01-15T09:20:44;8.13;;;1.23;;
20232;SDS011;37438;55.674;13.074;2024-01-15T09:23:49;9.13;;;1.30;;
20232;SDS011;37438;55.674;13.074;2024-01-15T09:26:54;6.38;;;1.45;;
20232;SDS011;37438;55.674;13.074;2024-01-15T09:29:59;5.15;;;1.08;;
20232;SDS011;37438;55.674;13.074;2024-01-15T09:33:04;3.90;;;1.45;;
20232;SDS011;37438;55.674;13.074;2024-01-15T09:36:09;5.13;;;1.20;;
20232;SDS011;37438;55.674;13.074;2024-01-15T09:39:14;1.50;;;0.70;;
20232;SDS011;37438;55.674;13.074;2024-01-15T09:42:20;0.52;;;0.30;;
20232;SDS011;37438;55.674;13.074;2024-01-15T09:45:25;1.85;;;0.20;;
20232;SDS011;37438;55.674;13.074;2024-01-15T09:48:30;1.58;;;0.50;;
20232;SDS011;37438;55.674;13.074;2024-01-15T09:51:38;3.15;;;0.32;;
20232;SDS011;37438;55.674;13.074;2024-01-15T09:57:51;0.43;;;0.10;;
20232;SDS011;37438;55.674;13.074;2024-01-15T10:00:57;0.35;;;0.10;;
20232;SDS011;37438;55.674;13.074;2024-01-15T10:04:02;0.40;;;0.10;;
20232;SDS011;37438;55.674;13.074;2024-01-15T10:07:07;0.28;;;0.10;;
20232;SDS011;37438;55.674;13.074;2024-01-15T10:10:13;0.20;;;0.00;;
20232;SDS011;37438;55.674;13.074;2024-01-15T10:13:18;0.52;;;0.10;;
20232;SDS011;37438;55.674;13.074;2024-01-15T10:19:28;1.00;;;0.10;;
20232;SDS011;37438;55.674;13.074;2024-01-15T10:22:33;0.57;;;0.17;;
20232;SDS011;37438;55.674;13.074;2024-01-15T10:25:38;0.43;;;0.40;;
20232;SDS011;37438;55.674;13.074;2024-01-15T10:28:43;0.32;;;0.22;;
20232;SDS011;37438;55.674;13.074;2024-01-15T10:31:48;0.68;;;0.28;;
20232;SDS011;37438;55.674;13.074;2024-01-15T10:37:59;0.47;;;0.10;;
20232;SDS011;37438;55.674;13.074;2024-01-15T10:44:08;1.10;;;0.20;;
20232;SDS011;37438;55.674;13.074;2024-01-15T10:47:13;0.70;;;0.20;;
20232;SDS011;37438;55.674;13.074;2024-01-15T10:50:19;0.60;;;0.00;;
20232;SDS011;37438;55.674;13.074;2024-01-15T10:56:29;1.50;;;0.32;;
20232;SDS011;37438;55.674;13.074;2024-01-15T10:59:36;0.43;;;0.30;;
20232;SDS011;37438;55.674;13.074;2024-01-15T11:02:41;4.45;;;1.00;;
20232;SDS011;37438;55.674;13.074;2024-01-15T11:08:52;3.78;;;0.15;;
20232;SDS011;37438;55.674;13.074;2024-01-15T11:12:09;0.75;;;0.13;;
20232;SDS011;37438;55.674;13.074;2024-01-15T11:15:16;0.30;;;0.05;;
20232;SDS011;37438;55.674;13.074;2024-01-15T11:18:28;0.17;;;0.17;;
20232;SDS011;37438;55.674;13.074;2024-01-15T11:21:34;0.52;;;0.20;;
20232;SDS011;37438;55.674;13.074;2024-01-15T11:24:46;1.10;;;0.55;;
20232;SDS011;37438;55.674;13.074;2024-01-15T11:27:52;5.18;;;0.90;;
20232;SDS011;37438;55.674;13.074;2024-01-15T11:30:59;1.20;;;0.30;;
20232;SDS011;37438;55.674;13.074;2024-01-15T11:34:04;0.45;;;0.20;;
20232;SDS011;37438;55.674;13.074;2024-01-15T11:37:09;0.90;;;0.30;;
20232;SDS011;37438;55.674;13.074;2024-01-15T11:40:18;2.83;;;1.50;;
20232;SDS011;37438;55.674;13.074;2024-01-15T11:43:22;0.30;;;0.30;;
20232;SDS011;37438;55.674;13.074;2024-01-15T11:46:28;0.93;;;0.20;;
20232;SDS011;37438;55.674;13.074;2024-01-15T11:52:49;0.22;;;0.10;;
20232;SDS011;37438;55.674;13.074;2024-01-15T11:55:57;0.70;;;0.10;;
20232;SDS011;37438;55.674;13.074;2024-01-15T11:59:03;0.30;;;0.30;;
20232;SDS011;37438;55.674;13.074;2024-01-15T12:02:08;0.20;;;0.00;;
20232;SDS011;37438;55.674;13.074;2024-01-15T12:05:16;1.13;;;0.00;;
20232;SDS011;37438;55.674;13.074;2024-01-15T12:08:22;1.77;;;0.60;;
20232;SDS011;37438;55.674;13.074;2024-01-15T12:11:27;5.00;;;0.13;;
20232;SDS011;37438;55.674;13.074;2024-01-15T12:14:33;0.80;;;0.10;;
20232;SDS011;37438;55.674;13.074;2024-01-15T12:17:39;0.00;;;0.00;;
20232;SDS011;37438;55.674;13.074;2024-01-15T12:20:44;0.77;;;0.30;;
20232;SDS011;37438;55.674;13.074;2024-01-15T12:23:55;0.00;;;0.00;;
20232;SDS011;37438;55.674;13.074;2024-01-15T12:27:00;0.75;;;0.20;;
20232;SDS011;37438;55.674;13.074;2024-01-15T12:30:05;0.00;;;0.00;;
20232;SDS011;37438;55.674;13.074;2024-01-15T12:33:11;0.43;;;0.20;;
20232;SDS011;37438;55.674;13.074;2024-01-15T12:36:20;0.17;;;0.10;;
20232;SDS011;37438;55.674;13.074;2024-01-15T12:39:25;0.38;;;0.10;;
20232;SDS011;37438;55.674;13.074;2024-01-15T12:42:31;0.22;;;0.22;;
20232;SDS011;37438;55.674;13.074;2024-01-15T12:45:36;1.70;;;0.73;;
20232;SDS011;37438;55.674;13.074;2024-01-15T12:48:42;2.30;;;0.20;;
20232;SDS011;37438;55.674;13.074;2024-01-15T12:51:53;1.50;;;0.20;;
20232;SDS011;37438;55.674;13.074;2024-01-15T12:54:58;1.13;;;0.25;;
20232;SDS011;37438;55.674;13.074;2024-01-15T12:58:03;1.42;;;0.50;;
20232;SDS011;37438;55.674;13.074;2024-01-15T13:01:08;3.17;;;0.20;;
20232;SDS011;37438;55.674;13.074;2024-01-15T13:04:22;0.40;;;0.20;;
20232;SDS011;37438;55.674;13.074;2024-01-15T13:07:29;1.17;;;0.25;;
20232;SDS011;37438;55.674;13.074;2024-01-15T13:10:34;1.15;;;0.22;;
20232;SDS011;37438;55.674;13.074;2024-01-15T13:13:39;0.20;;;0.17;;
20232;SDS011;37438;55.674;13.074;2024-01-15T13:16:44;0.30;;;0.10;;
20232;SDS011;37438;55.674;13.074;2024-01-15T13:19:49;0.60;;;0.08;;
20232;SDS011;37438;55.674;13.074;2024-01-15T13:22:54;10.93;;;0.25;;
20232;SDS011;37438;55.674;13.074;2024-01-15T13:25:59;1.77;;;0.15;;
20232;SDS011;37438;55.674;13.074;2024-01-15T13:29:04;0.40;;;0.03;;
20232;SDS011;37438;55.674;13.074;2024-01-15T13:32:09;0.45;;;0.10;;
20232;SDS011;37438;55.674;13.074;2024-01-15T13:35:15;0.20;;;0.10;;
20232;SDS011;37438;55.674;13.074;2024-01-15T13:41:24;2.30;;;0.40;;
20232;SDS011;37438;55.674;13.074;2024-01-15T13:44:31;0.57;;;0.10;;
20232;SDS011;37438;55.674;13.074;2024-01-15T13:47:36;0.80;;;0.32;;
20232;SDS011;37438;55.674;13.074;2024-01-15T13:50:41;0.43;;;0.20;;
20232;SDS011;37438;55.674;13.074;2024-01-15T13:53:46;1.35;;;0.30;;
20232;SDS011;37438;55.674;13.074;2024-01-15T13:56:51;1.23;;;0.20;;
20232;SDS011;37438;55.674;13.074;2024-01-15T13:59:56;0.32;;;0.10;;
20232;SDS011;37438;55.674;13.074;2024-01-15T14:03:01;0.10;;;0.05;;
20232;SDS011;37438;55.674;13.074;2024-01-15T14:06:06;1.08;;;0.13;;
20232;SDS011;37438;55.674;13.074;2024-01-15T14:09:14;0.43;;;0.20;;
20232;SDS011;37438;55.674;13.074;2024-01-15T14:12:19;1.10;;;0.10;;
20232;SDS011;37438;55.674;13.074;2024-01-15T14:15:24;1.88;;;0.20;;
20232;SDS011;37438;55.674;13.074;2024-01-15T14:18:29;0.80;;;0.13;;
20232;SDS011;37438;55.674;13.074;2024-01-15T14:21:38;1.20;;;0.22;;
20232;SDS011;37438;55.674;13.074;2024-01-15T14:24:43;0.63;;;0.20;;
20232;SDS011;37438;55.674;13.074;2024-01-15T14:27:48;0.40;;;0.10;;
20232;SDS011;37438;55.674;13.074;2024-01-15T14:30:53;1.65;;;0.10;;
20232;SDS011;37438;55.674;13.074;2024-01-15T14:34:00;2.05;;;0.30;;
20232;SDS011;37438;55.674;13.074;2024-01-15T14:37:07;2.13;;;0.20;;
20232;SDS011;37438;55.674;13.074;2024-01-15T14:40:12;1.40;;;0.30;;
20232;SDS011;37438;55.674;13.074;2024-01-15T14:43:21;2.58;;;0.25;;
20232;SDS011;37438;55.674;13.074;2024-01-15T14:46:26;2.33;;;0.40;;
20232;SDS011;37438;55.674;13.074;2024-01-15T14:49:31;0.38;;;0.20;;
20232;SDS011;37438;55.674;13.074;2024-01-15T14:52:36;0.32;;;0.10;;
20232;SDS011;37438;55.674;13.074;2024-01-15T14:55:41;0.90;;;0.63;;
20232;SDS011;37438;55.674;13.074;2024-01-15T14:58:46;1.55;;;0.10;;
20232;SDS011;37438;55.674;13.074;2024-01-15T15:01:51;1.15;;;0.20;;
20232;SDS011;37438;55.674;13.074;2024-01-15T15:04:57;1.77;;;0.10;;
20232;SDS011;37438;55.674;13.074;2024-01-15T15:08:04;1.65;;;0.25;;
20232;SDS011;37438;55.674;13.074;2024-01-15T15:11:12;3.00;;;0.70;;
20232;SDS011;37438;55.674;13.074;2024-01-15T15:14:17;0.52;;;0.10;;
20232;SDS011;37438;55.674;13.074;2024-01-15T15:17:22;0.55;;;0.10;;
20232;SDS011;37438;55.674;13.074;2024-01-15T15:20:27;0.20;;;0.10;;
20232;SDS011;37438;55.674;13.074;2024-01-15T15:23:31;0.80;;;0.30;;
20232;SDS011;37438;55.674;13.074;2024-01-15T15:26:36;0.20;;;0.20;;
20232;SDS011;37438;55.674;13.074;2024-01-15T15:29:41;1.38;;;0.30;;
20232;SDS011;37438;55.674;13.074;2024-01-15T15:32:46;2.83;;;0.30;;
20232;SDS011;37438;55.674;13.074;2024-01-15T15:35:51;0.20;;;0.20;;
20232;SDS011;37438;55.674;13.074;2024-01-15T15:38:56;1.33;;;0.30;;
20232;SDS011;37438;55.674;13.074;2024-01-15T15:42:02;2.60;;;0.70;;
20232;SDS011;37438;55.674;13.074;2024-01-15T15:45:07;3.45;;;0.25;;
20232;SDS011;37438;55.674;13.074;2024-01-15T15:48:14;0.10;;;0.10;;
20232;SDS011;37438;55.674;13.074;2024-01-15T15:51:19;1.38;;;0.20;;
20232;SDS011;37438;55.674;13.074;2024-01-15T15:54:24;0.70;;;0.43;;
20232;SDS011;37438;55.674;13.074;2024-01-15T15:57:29;2.67;;;0.65;;
20232;SDS011;37438;55.674;13.074;2024-01-15T16:00:35;0.63;;;0.30;;
20232;SDS011;37438;55.674;13.074;2024-01-15T16:03:40;0.10;;;0.10;;
20232;SDS011;37438;55.674;13.074;2024-01-15T16:06:45;0.93;;;0.40;;
20232;SDS011;37438;55.674;13.074;2024-01-15T16:09:51;0.82;;;0.35;;
20232;SDS011;37438;55.674;13.074;2024-01-15T16:12:56;1.30;;;0.17;;
20232;SDS011;37438;55.674;13.074;2024-01-15T16:16:01;0.85;;;0.20;;
20232;SDS011;37438;55.674;13.074;2024-01-15T16:19:25;1.38;;;0.30;;
20232;SDS011;37438;55.674;13.074;2024-01-15T16:22:50;0.00;;;0.00;;
20232;SDS011;37438;55.674;13.074;2024-01-15T16:26:15;1.63;;;1.03;;
20232;SDS011;37438;55.674;13.074;2024-01-15T16:29:21;1.90;;;0.35;;
20232;SDS011;37438;55.674;13.074;2024-01-15T16:32:26;2.03;;;0.20;;
20232;SDS011;37438;55.674;13.074;2024-01-15T16:35:31;2.10;;;0.20;;
20232;SDS011;37438;55.674;13.074;2024-01-15T16:38:36;2.08;;;1.27;;
20232;SDS011;37438;55.674;13.074;2024-01-15T16:41:41;4.25;;;1.98;;
20232;SDS011;37438;55.674;13.074;2024-01-15T16:44:46;0.80;;;0.68;;
20232;SDS011;37438;55.674;13.074;2024-01-15T16:47:50;4.00;;;0.28;;
20232;SDS011;37438;55.674;13.074;2024-01-15T16:50:55;1.95;;;0.85;;
20232;SDS011;37438;55.674;13.074;2024-01-15T16:54:00;0.20;;;0.13;;
20232;SDS011;37438;55.674;13.074;2024-01-15T16:57:05;0.52;;;0.40;;
20232;SDS011;37438;55.674;13.074;2024-01-15T17:00:10;3.03;;;0.82;;
20232;SDS011;37438;55.674;13.074;2024-01-15T17:03:14;0.30;;;0.30;;
20232;SDS011;37438;55.674;13.074;2024-01-15T17:06:19;0.50;;;0.35;;
20232;SDS011;37438;55.674;13.074;2024-01-15T17:09:25;1.23;;;0.32;;
20232;SDS011;37438;55.674;13.074;2024-01-15T17:12:29;3.65;;;1.88;;
20232;SDS011;37438;55.674;13.074;2024-01-15T17:15:34;9.77;;;1.30;;
20232;SDS011;37438;55.674;13.074;2024-01-15T17:18:39;0.93;;;0.52;;
20232;SDS011;37438;55.674;13.074;2024-01-15T17:21:44;5.40;;;0.60;;
20232;SDS011;37438;55.674;13.074;2024-01-15T17:24:50;0.55;;;0.30;;
20232;SDS011;37438;55.674;13.074;2024-01-15T17:27:55;0.40;;;0.40;;
20232;SDS011;37438;55.674;13.074;2024-01-15T17:31:00;1.70;;;0.60;;
20232;SDS011;37438;55.674;13.074;2024-01-15T17:34:04;2.72;;;0.90;;
20232;SDS011;37438;55.674;13.074;2024-01-15T17:37:09;0.98;;;0.40;;
20232;SDS011;37438;55.674;13.074;2024-01-15T17:40:14;0.50;;;0.40;;
20232;SDS011;37438;55.674;13.074;2024-01-15T17:43:19;3.55;;;1.05;;
20232;SDS011;37438;55.674;13.074;2024-01-15T17:46:24;3.08;;;1.02;;
20232;SDS011;37438;55.674;13.074;2024-01-15T17:49:32;1.45;;;0.82;;
20232;SDS011;37438;55.674;13.074;2024-01-15T17:52:37;4.13;;;0.88;;
20232;SDS011;37438;55.674;13.074;2024-01-15T17:55:42;1.30;;;0.77;;
20232;SDS011;37438;55.674;13.074;2024-01-15T17:58:47;1.35;;;0.22;;
20232;SDS011;37438;55.674;13.074;2024-01-15T18:01:51;1.20;;;1.10;;
20232;SDS011;37438;55.674;13.074;2024-01-15T18:04:58;1.67;;;0.90;;
20232;SDS011;37438;55.674;13.074;2024-01-15T18:08:03;3.13;;;0.57;;
20232;SDS011;37438;55.674;13.074;2024-01-15T18:11:14;5.85;;;2.80;;
20232;SDS011;37438;55.674;13.074;2024-01-15T18:14:20;4.85;;;2.45;;
20232;SDS011;37438;55.674;13.074;2024-01-15T18:17:25;3.95;;;2.65;;
20232;SDS011;37438;55.674;13.074;2024-01-15T18:20:30;1.70;;;1.35;;
20232;SDS011;37438;55.674;13.074;2024-01-15T18:23:35;1.13;;;0.40;;
20232;SDS011;37438;55.674;13.074;2024-01-15T18:26:40;2.10;;;0.77;;
20232;SDS011;37438;55.674;13.074;2024-01-15T18:32:50;0.90;;;0.50;;
20232;SDS011;37438;55.674;13.074;2024-01-15T18:35:55;1.00;;;0.70;;
20232;SDS011;37438;55.674;13.074;2024-01-15T18:39:00;2.30;;;0.47;;
20232;SDS011;37438;55.674;13.074;2024-01-15T18:42:09;1.90;;;0.77;;
20232;SDS011;37438;55.674;13.074;2024-01-15T18:45:14;2.55;;;1.10;;
20232;SDS011;37438;55.674;13.074;2024-01-15T18:48:19;2.58;;;0.95;;
20232;SDS011;37438;55.674;13.074;2024-01-15T18:51:24;1.92;;;0.60;;
20232;SDS011;37438;55.674;13.074;2024-01-15T18:54:29;4.35;;;0.73;;
20232;SDS011;37438;55.674;13.074;2024-01-15T18:57:34;1.58;;;0.60;;
20232;SDS011;37438;55.674;13.074;2024-01-15T19:00:39;2.80;;;0.50;;
20232;SDS011;37438;55.674;13.074;2024-01-15T19:03:45;1.92;;;0.98;;
20232;SDS011;37438;55.674;13.074;2024-01-15T19:06:50;0.47;;;0.47;;